sensor_id;sensor_type;location;lat;lon;timestamp;temperature;humidity
15386;DHT22;7791;47.246;9.648;2022-12-05T00:00:12;3.30;99.90
15386;DHT22;7791;47.246;9.648;2022-12-05T00:02:38;3.30;99.90
15386;DHT22;7791;47.246;9.648;2022-12-05T00:05:04;3.30;99.90
15386;DHT22;7791;47.246;9.648;2022-12-05T00:07:34;3.30;99.90
15386;DHT22;7791;47.246;9.648;2022-12-05T00:09:59;3.30;99.90
15386;DHT22;7791;47.246;9.648;2022-12-05T00:12:29;3.40;99.90
15386;DHT22;7791;47.246;9.648;2022-12-05T00:14:55;3.40;99.90
15386;DHT22;7791;47.246;9.648;2022-12-05T00:17:20;3.40;99.90
15386;DHT22;7791;47.246;9.648;2022-12-05T00:19:46;3.50;99.90
15386;DHT22;7791;47.246;9.648;2022-12-05T00:22:13;3.50;99.90
15386;DHT22;7791;47.246;9.648;2022-12-05T00:24:41;3.50;99.90
15386;DHT22;7791;47.246;9.648;2022-12-05T00:27:06;3.50;99.90
15386;DHT22;7791;47.246;9.648;2022-12-05T00:29:32;3.70;99.90
15386;DHT22;7791;47.246;9.648;2022-12-05T00:31:58;3.50;99.90
15386;DHT22;7791;47.246;9.648;2022-12-05T00:34:24;3.50;99.90
15386;DHT22;7791;47.246;9.648;2022-12-05T00:36:50;3.50;99.90
15386;DHT22;7791;47.246;9.648;2022-12-05T00:39:23;3.60;99.90
15386;DHT22;7791;47.246;9.648;2022-12-05T00:41:50;3.70;99.90
15386;DHT22;7791;47.246;9.648;2022-12-05T00:44:16;3.80;99.90
15386;DHT22;7791;47.246;9.648;2022-12-05T00:46:42;3.90;99.90
15386;DHT22;7791;47.246;9.648;2022-12-05T00:49:11;3.90;99.90
15386;DHT22;7791;47.246;9.648;2022-12-05T00:51:41;4.00;99.90
15386;DHT22;7791;47.246;9.648;2022-12-05T00:54:09;4.20;99.90
15386;DHT22;7791;47.246;9.648;2022-12-05T00:56:36;4.10;99.90
15386;DHT22;7791;47.246;9.648;2022-12-05T00:59:04;4.00;99.90
15386;DHT22;7791;47.246;9.648;2022-12-05T01:01:31;3.90;99.90
15386;DHT22;7791;47.246;9.648;2022-12-05T01:03:59;3.90;99.90
15386;DHT22;7791;47.246;9.648;2022-12-05T01:06:25;3.90;99.90
15386;DHT22;7791;47.246;9.648;2022-12-05T01:08:52;3.70;99.90
15386;DHT22;7791;47.246;9.648;2022-12-05T01:11:18;3.70;99.90
15386;DHT22;7791;47.246;9.648;2022-12-05T01:13:45;3.80;99.90
15386;DHT22;7791;47.246;9.648;2022-12-05T01:16:17;3.80;99.90
15386;DHT22;7791;47.246;9.648;2022-12-05T01:18:43;3.80;99.90
15386;DHT22;7791;47.246;9.648;2022-12-05T01:21:09;3.80;99.90
15386;DHT22;7791;47.246;9.648;2022-12-05T01:23:35;3.60;99.90
15386;DHT22;7791;47.246;9.648;2022-12-05T01:26:05;3.60;99.90
15386;DHT22;7791;47.246;9.648;2022-12-05T01:28:31;3.50;99.90
15386;DHT22;7791;47.246;9.648;2022-12-05T01:30:56;3.60;99.90
15386;DHT22;7791;47.246;9.648;2022-12-05T01:33:24;3.60;99.90
15386;DHT22;7791;47.246;9.648;2022-12-05T01:35:49;3.50;99.90
15386;DHT22;7791;47.246;9.648;2022-12-05T01:38:15;3.50;99.90
15386;DHT22;7791;47.246;9.648;2022-12-05T01:40:41;3.50;99.90
15386;DHT22;7791;47.246;9.648;2022-12-05T01:43:13;3.50;99.90
15386;DHT22;7791;47.246;9.648;2022-12-05T01:45:42;3.50;99.90
15386;DHT22;7791;47.246;9.648;2022-12-05T01:48:10;3.40;99.90
15386;DHT22;7791;47.246;9.648;2022-12-05T01:50:39;3.30;99.90
15386;DHT22;7791;47.246;9.648;2022-12-05T01:53:05;3.40;99.90
15386;DHT22;7791;47.246;9.648;2022-12-05T01:55:31;3.40;99.90
15386;DHT22;7791;47.246;9.648;2022-12-05T01:57:59;3.50;99.90
15386;DHT22;7791;47.246;9.648;2022-12-05T02:00:26;3.50;99.90
15386;DHT22;7791;47.246;9.648;2022-12-05T02:02:54;3.60;99.90
15386;DHT22;7791;47.246;9.648;2022-12-05T02:05:24;3.80;99.90
15386;DHT22;7791;47.246;9.648;2022-12-05T02:07:52;3.90;99.90
15386;DHT22;7791;47.246;9.648;2022-12-05T02:10:18;4.00;99.90
15386;DHT22;7791;47.246;9.648;2022-12-05T02:12:45;4.10;99.90
15386;DHT22;7791;47.246;9.648;2022-12-05T02:15:23;4.20;99.90
15386;DHT22;7791;47.246;9.648;2022-12-05T02:18:00;4.30;99.90
15386;DHT22;7791;47.246;9.648;2022-12-05T02:20:37;4.40;99.90
15386;DHT22;7791;47.246;9.648;2022-12-05T02:23:30;4.40;99.90
15386;DHT22;7791;47.246;9.648;2022-12-05T02:26:24;4.50;99.90
15386;DHT22;7791;47.246;9.648;2022-12-05T02:31:50;4.50;99.90
15386;DHT22;7791;47.246;9.648;2022-12-05T02:34:20;4.50;99.90
15386;DHT22;7791;47.246;9.648;2022-12-05T02:36:56;4.50;99.90
15386;DHT22;7791;47.246;9.648;2022-12-05T02:39:26;4.60;99.90
15386;DHT22;7791;47.246;9.648;2022-12-05T02:41:57;4.50;99.90
15386;DHT22;7791;47.246;9.648;2022-12-05T02:44:30;4.40;99.90
15386;DHT22;7791;47.246;9.648;2022-12-05T02:47:00;4.40;99.90
15386;DHT22;7791;47.246;9.648;2022-12-05T02:49:30;4.40;99.90
15386;DHT22;7791;47.246;9.648;2022-12-05T02:51:58;4.30;99.90
15386;DHT22;7791;47.246;9.648;2022-12-05T02:54:26;4.30;99.90
15386;DHT22;7791;47.246;9.648;2022-12-05T02:57:00;4.30;99.90
15386;DHT22;7791;47.246;9.648;2022-12-05T02:59:26;4.40;99.90
15386;DHT22;7791;47.246;9.648;2022-12-05T03:01:52;4.30;99.90
15386;DHT22;7791;47.246;9.648;2022-12-05T03:04:21;4.30;99.90
15386;DHT22;7791;47.246;9.648;2022-12-05T03:06:50;4.20;99.90
15386;DHT22;7791;47.246;9.648;2022-12-05T03:09:20;4.10;99.90
15386;DHT22;7791;47.246;9.648;2022-12-05T03:11:49;4.10;99.90
15386;DHT22;7791;47.246;9.648;2022-12-05T03:14:19;4.10;99.90
15386;DHT22;7791;47.246;9.648;2022-12-05T03:16:49;4.10;99.90
15386;DHT22;7791;47.246;9.648;2022-12-05T03:19:21;4.00;99.90
15386;DHT22;7791;47.246;9.648;2022-12-05T03:21:51;4.10;99.90
15386;DHT22;7791;47.246;9.648;2022-12-05T03:24:18;4.10;99.90
15386;DHT22;7791;47.246;9.648;2022-12-05T03:26:51;4.20;99.90
15386;DHT22;7791;47.246;9.648;2022-12-05T03:29:24;4.30;99.90
15386;DHT22;7791;47.246;9.648;2022-12-05T03:32:00;4.30;99.90
15386;DHT22;7791;47.246;9.648;2022-12-05T03:34:35;4.30;99.90
15386;DHT22;7791;47.246;9.648;2022-12-05T03:37:06;4.30;99.90
15386;DHT22;7791;47.246;9.648;2022-12-05T03:39:35;4.30;99.90
15386;DHT22;7791;47.246;9.648;2022-12-05T03:42:09;4.40;99.90
15386;DHT22;7791;47.246;9.648;2022-12-05T03:44:42;4.40;99.90
15386;DHT22;7791;47.246;9.648;2022-12-05T03:47:13;4.50;99.90
15386;DHT22;7791;47.246;9.648;2022-12-05T03:49:45;4.50;99.90
15386;DHT22;7791;47.246;9.648;2022-12-05T03:52:15;4.50;99.90
15386;DHT22;7791;47.246;9.648;2022-12-05T03:54:46;4.50;99.90
15386;DHT22;7791;47.246;9.648;2022-12-05T03:57:17;4.50;99.90
15386;DHT22;7791;47.246;9.648;2022-12-05T03:59:47;4.40;99.90
15386;DHT22;7791;47.246;9.648;2022-12-05T04:02:17;4.10;99.90
15386;DHT22;7791;47.246;9.648;2022-12-05T04:04:51;4.10;99.90
15386;DHT22;7791;47.246;9.648;2022-12-05T04:07:18;4.30;99.90
15386;DHT22;7791;47.246;9.648;2022-12-05T04:09:47;4.40;99.90
15386;DHT22;7791;47.246;9.648;2022-12-05T04:12:18;4.40;99.90
15386;DHT22;7791;47.246;9.648;2022-12-05T04:14:47;4.40;99.90
15386;DHT22;7791;47.246;9.648;2022-12-05T04:17:17;4.40;99.90
15386;DHT22;7791;47.246;9.648;2022-12-05T04:19:50;4.40;99.90
15386;DHT22;7791;47.246;9.648;2022-12-05T04:22:18;4.50;99.90
15386;DHT22;7791;47.246;9.648;2022-12-05T04:24:45;4.50;99.90
15386;DHT22;7791;47.246;9.648;2022-12-05T04:27:24;4.50;99.90
15386;DHT22;7791;47.246;9.648;2022-12-05T04:29:58;4.50;99.90
15386;DHT22;7791;47.246;9.648;2022-12-05T04:32:29;4.40;99.90
15386;DHT22;7791;47.246;9.648;2022-12-05T04:35:04;4.40;99.90
15386;DHT22;7791;47.246;9.648;2022-12-05T04:37:34;4.40;99.90
15386;DHT22;7791;47.246;9.648;2022-12-05T04:40:05;4.40;99.90
15386;DHT22;7791;47.246;9.648;2022-12-05T04:42:35;4.40;99.90
15386;DHT22;7791;47.246;9.648;2022-12-05T04:45:05;4.50;99.90
15386;DHT22;7791;47.246;9.648;2022-12-05T04:47:39;4.60;99.90
15386;DHT22;7791;47.246;9.648;2022-12-05T04:50:10;4.60;99.90
15386;DHT22;7791;47.246;9.648;2022-12-05T04:52:37;4.60;99.90
15386;DHT22;7791;47.246;9.648;2022-12-05T04:55:07;4.60;99.90
15386;DHT22;7791;47.246;9.648;2022-12-05T04:57:38;4.60;99.90
15386;DHT22;7791;47.246;9.648;2022-12-05T05:00:06;4.60;99.90
15386;DHT22;7791;47.246;9.648;2022-12-05T05:02:36;4.60;99.90
15386;DHT22;7791;47.246;9.648;2022-12-05T05:05:09;4.60;99.90
15386;DHT22;7791;47.246;9.648;2022-12-05T05:07:42;4.60;99.90
15386;DHT22;7791;47.246;9.648;2022-12-05T05:10:10;4.60;99.90
15386;DHT22;7791;47.246;9.648;2022-12-05T05:12:40;4.60;99.90
15386;DHT22;7791;47.246;9.648;2022-12-05T05:15:06;4.60;99.90
15386;DHT22;7791;47.246;9.648;2022-12-05T05:17:32;4.60;99.90
15386;DHT22;7791;47.246;9.648;2022-12-05T05:19:57;4.60;99.90
15386;DHT22;7791;47.246;9.648;2022-12-05T05:22:24;4.70;99.90
15386;DHT22;7791;47.246;9.648;2022-12-05T05:24:50;4.60;99.90
15386;DHT22;7791;47.246;9.648;2022-12-05T05:27:17;4.50;99.90
15386;DHT22;7791;47.246;9.648;2022-12-05T05:29:43;4.50;99.90
15386;DHT22;7791;47.246;9.648;2022-12-05T05:32:09;4.50;99.90
15386;DHT22;7791;47.246;9.648;2022-12-05T05:34:35;4.50;99.90
15386;DHT22;7791;47.246;9.648;2022-12-05T05:37:00;4.50;99.90
15386;DHT22;7791;47.246;9.648;2022-12-05T05:39:27;4.50;99.90
15386;DHT22;7791;47.246;9.648;2022-12-05T05:41:53;4.50;99.90
15386;DHT22;7791;47.246;9.648;2022-12-05T05:44:19;4.40;99.90
15386;DHT22;7791;47.246;9.648;2022-12-05T05:46:45;4.40;99.90
15386;DHT22;7791;47.246;9.648;2022-12-05T05:49:10;4.50;99.90
15386;DHT22;7791;47.246;9.648;2022-12-05T05:51:36;4.50;99.90
15386;DHT22;7791;47.246;9.648;2022-12-05T05:54:02;4.50;99.90
15386;DHT22;7791;47.246;9.648;2022-12-05T05:56:32;4.50;99.90
15386;DHT22;7791;47.246;9.648;2022-12-05T05:58:59;4.60;99.90
15386;DHT22;7791;47.246;9.648;2022-12-05T06:01:26;4.50;99.90
15386;DHT22;7791;47.246;9.648;2022-12-05T06:03:52;4.50;99.90
15386;DHT22;7791;47.246;9.648;2022-12-05T06:06:19;4.50;99.90
15386;DHT22;7791;47.246;9.648;2022-12-05T06:08:45;4.40;99.90
15386;DHT22;7791;47.246;9.648;2022-12-05T06:11:12;4.40;99.90
15386;DHT22;7791;47.246;9.648;2022-12-05T06:13:39;4.50;99.90
15386;DHT22;7791;47.246;9.648;2022-12-05T06:16:09;4.40;99.90
15386;DHT22;7791;47.246;9.648;2022-12-05T06:18:36;4.40;99.90
15386;DHT22;7791;47.246;9.648;2022-12-05T06:21:03;4.40;99.90
15386;DHT22;7791;47.246;9.648;2022-12-05T06:23:30;4.50;99.90
15386;DHT22;7791;47.246;9.648;2022-12-05T06:25:55;4.50;99.90
15386;DHT22;7791;47.246;9.648;2022-12-05T06:28:22;4.30;99.90
15386;DHT22;7791;47.246;9.648;2022-12-05T06:30:49;4.20;99.90
15386;DHT22;7791;47.246;9.648;2022-12-05T06:33:15;4.30;99.90
15386;DHT22;7791;47.246;9.648;2022-12-05T06:35:41;4.30;99.90
15386;DHT22;7791;47.246;9.648;2022-12-05T06:38:08;4.30;99.90
15386;DHT22;7791;47.246;9.648;2022-12-05T06:40:34;4.10;99.90
15386;DHT22;7791;47.246;9.648;2022-12-05T06:43:00;4.10;99.90
15386;DHT22;7791;47.246;9.648;2022-12-05T06:45:25;3.90;99.90
15386;DHT22;7791;47.246;9.648;2022-12-05T06:47:52;3.70;99.90
15386;DHT22;7791;47.246;9.648;2022-12-05T06:50:18;3.60;99.90
15386;DHT22;7791;47.246;9.648;2022-12-05T06:52:44;3.50;99.90
15386;DHT22;7791;47.246;9.648;2022-12-05T06:55:10;3.50;99.90
15386;DHT22;7791;47.246;9.648;2022-12-05T06:57:35;3.60;99.90
15386;DHT22;7791;47.246;9.648;2022-12-05T07:00:02;3.50;99.90
15386;DHT22;7791;47.246;9.648;2022-12-05T07:02:28;3.50;99.90
15386;DHT22;7791;47.246;9.648;2022-12-05T07:04:55;3.50;99.90
15386;DHT22;7791;47.246;9.648;2022-12-05T07:07:20;3.70;99.90
15386;DHT22;7791;47.246;9.648;2022-12-05T07:09:46;3.80;99.90
15386;DHT22;7791;47.246;9.648;2022-12-05T07:12:13;3.80;99.90
15386;DHT22;7791;47.246;9.648;2022-12-05T07:14:38;3.80;99.90
15386;DHT22;7791;47.246;9.648;2022-12-05T07:17:04;4.00;99.90
15386;DHT22;7791;47.246;9.648;2022-12-05T07:19:30;4.00;99.90
15386;DHT22;7791;47.246;9.648;2022-12-05T07:21:57;4.10;99.90
15386;DHT22;7791;47.246;9.648;2022-12-05T07:24:23;4.00;99.90
15386;DHT22;7791;47.246;9.648;2022-12-05T07:26:49;3.80;99.90
15386;DHT22;7791;47.246;9.648;2022-12-05T07:29:14;3.70;99.90
15386;DHT22;7791;47.246;9.648;2022-12-05T07:31:40;3.80;99.90
15386;DHT22;7791;47.246;9.648;2022-12-05T07:34:05;4.00;99.90
15386;DHT22;7791;47.246;9.648;2022-12-05T07:36:31;4.00;99.90
15386;DHT22;7791;47.246;9.648;2022-12-05T07:38:58;4.10;99.90
15386;DHT22;7791;47.246;9.648;2022-12-05T07:41:25;4.20;99.90
15386;DHT22;7791;47.246;9.648;2022-12-05T07:43:52;4.20;99.90
15386;DHT22;7791;47.246;9.648;2022-12-05T07:46:18;4.20;99.90
15386;DHT22;7791;47.246;9.648;2022-12-05T07:48:44;4.30;99.90
15386;DHT22;7791;47.246;9.648;2022-12-05T07:51:10;4.30;99.90
15386;DHT22;7791;47.246;9.648;2022-12-05T07:53:37;4.30;99.90
15386;DHT22;7791;47.246;9.648;2022-12-05T07:56:05;4.40;99.90
15386;DHT22;7791;47.246;9.648;2022-12-05T07:58:32;4.20;99.90
15386;DHT22;7791;47.246;9.648;2022-12-05T08:01:05;4.20;99.90
15386;DHT22;7791;47.246;9.648;2022-12-05T08:03:31;4.20;99.90
15386;DHT22;7791;47.246;9.648;2022-12-05T08:06:00;4.20;99.90
15386;DHT22;7791;47.246;9.648;2022-12-05T08:08:26;4.10;99.90
15386;DHT22;7791;47.246;9.648;2022-12-05T08:10:52;4.20;99.90
15386;DHT22;7791;47.246;9.648;2022-12-05T08:13:19;4.30;99.90
15386;DHT22;7791;47.246;9.648;2022-12-05T08:15:44;4.30;99.90
15386;DHT22;7791;47.246;9.648;2022-12-05T08:18:10;4.40;99.90
15386;DHT22;7791;47.246;9.648;2022-12-05T08:20:36;4.50;99.90
15386;DHT22;7791;47.246;9.648;2022-12-05T08:23:01;4.40;99.90
15386;DHT22;7791;47.246;9.648;2022-12-05T08:25:27;4.40;99.90
15386;DHT22;7791;47.246;9.648;2022-12-05T08:27:53;4.30;99.90
15386;DHT22;7791;47.246;9.648;2022-12-05T08:30:20;4.10;99.90
15386;DHT22;7791;47.246;9.648;2022-12-05T08:32:45;4.00;99.90
15386;DHT22;7791;47.246;9.648;2022-12-05T08:35:11;4.00;99.90
15386;DHT22;7791;47.246;9.648;2022-12-05T08:37:37;4.20;99.90
15386;DHT22;7791;47.246;9.648;2022-12-05T08:40:03;4.40;99.90
15386;DHT22;7791;47.246;9.648;2022-12-05T08:42:29;4.50;99.90
15386;DHT22;7791;47.246;9.648;2022-12-05T08:44:55;4.50;99.90
15386;DHT22;7791;47.246;9.648;2022-12-05T08:47:22;4.50;99.90
15386;DHT22;7791;47.246;9.648;2022-12-05T08:49:47;4.60;99.90
15386;DHT22;7791;47.246;9.648;2022-12-05T08:52:13;4.60;99.90
15386;DHT22;7791;47.246;9.648;2022-12-05T08:54:39;4.60;99.90
15386;DHT22;7791;47.246;9.648;2022-12-05T08:57:05;4.60;99.90
15386;DHT22;7791;47.246;9.648;2022-12-05T08:59:30;4.50;99.90
15386;DHT22;7791;47.246;9.648;2022-12-05T09:01:56;4.50;99.90
15386;DHT22;7791;47.246;9.648;2022-12-05T09:04:23;4.60;99.90
15386;DHT22;7791;47.246;9.648;2022-12-05T09:06:49;4.60;99.90
15386;DHT22;7791;47.246;9.648;2022-12-05T09:09:15;4.60;99.90
15386;DHT22;7791;47.246;9.648;2022-12-05T09:11:42;4.70;99.90
15386;DHT22;7791;47.246;9.648;2022-12-05T09:14:08;4.60;99.90
15386;DHT22;7791;47.246;9.648;2022-12-05T09:16:36;4.70;99.90
15386;DHT22;7791;47.246;9.648;2022-12-05T09:19:02;4.70;99.90
15386;DHT22;7791;47.246;9.648;2022-12-05T09:21:30;4.70;99.90
15386;DHT22;7791;47.246;9.648;2022-12-05T09:23:57;4.70;99.90
15386;DHT22;7791;47.246;9.648;2022-12-05T09:26:25;4.60;99.90
15386;DHT22;7791;47.246;9.648;2022-12-05T09:28:51;4.70;99.90
15386;DHT22;7791;47.246;9.648;2022-12-05T09:31:19;4.80;99.90
15386;DHT22;7791;47.246;9.648;2022-12-05T09:33:46;4.80;99.90
15386;DHT22;7791;47.246;9.648;2022-12-05T09:36:14;4.80;99.90
15386;DHT22;7791;47.246;9.648;2022-12-05T09:38:42;4.80;99.90
15386;DHT22;7791;47.246;9.648;2022-12-05T09:41:17;4.70;99.90
15386;DHT22;7791;47.246;9.648;2022-12-05T09:43:51;4.80;99.90
15386;DHT22;7791;47.246;9.648;2022-12-05T09:46:27;4.90;99.90
15386;DHT22;7791;47.246;9.648;2022-12-05T09:49:02;4.90;99.90
15386;DHT22;7791;47.246;9.648;2022-12-05T09:51:29;4.90;99.90
15386;DHT22;7791;47.246;9.648;2022-12-05T09:53:56;4.90;99.90
15386;DHT22;7791;47.246;9.648;2022-12-05T09:56:25;4.80;99.90
15386;DHT22;7791;47.246;9.648;2022-12-05T09:58:53;4.80;99.90
15386;DHT22;7791;47.246;9.648;2022-12-05T10:01:28;4.80;99.90
15386;DHT22;7791;47.246;9.648;2022-12-05T10:04:10;4.80;99.90
15386;DHT22;7791;47.246;9.648;2022-12-05T10:06:46;4.80;99.90
15386;DHT22;7791;47.246;9.648;2022-12-05T10:09:32;4.80;99.90
15386;DHT22;7791;47.246;9.648;2022-12-05T10:12:05;4.80;99.90
15386;DHT22;7791;47.246;9.648;2022-12-05T10:14:40;4.70;99.90
15386;DHT22;7791;47.246;9.648;2022-12-05T10:17:13;4.70;99.90
15386;DHT22;7791;47.246;9.648;2022-12-05T10:19:43;4.70;99.90
15386;DHT22;7791;47.246;9.648;2022-12-05T10:22:13;4.70;99.90
15386;DHT22;7791;47.246;9.648;2022-12-05T10:24:43;4.70;99.90
15386;DHT22;7791;47.246;9.648;2022-12-05T10:27:15;4.70;99.90
15386;DHT22;7791;47.246;9.648;2022-12-05T10:29:46;4.70;99.90
15386;DHT22;7791;47.246;9.648;2022-12-05T10:32:17;4.70;99.90
15386;DHT22;7791;47.246;9.648;2022-12-05T10:34:44;4.70;99.90
15386;DHT22;7791;47.246;9.648;2022-12-05T10:37:14;4.80;99.90
15386;DHT22;7791;47.246;9.648;2022-12-05T10:39:41;4.80;99.90
15386;DHT22;7791;47.246;9.648;2022-12-05T10:42:12;4.90;99.90
15386;DHT22;7791;47.246;9.648;2022-12-05T10:44:40;4.90;99.90
15386;DHT22;7791;47.246;9.648;2022-12-05T10:47:06;4.90;99.90
15386;DHT22;7791;47.246;9.648;2022-12-05T10:49:33;4.90;99.90
15386;DHT22;7791;47.246;9.648;2022-12-05T10:51:59;4.90;99.90
15386;DHT22;7791;47.246;9.648;2022-12-05T10:54:28;5.00;99.90
15386;DHT22;7791;47.246;9.648;2022-12-05T10:56:56;5.00;99.90
15386;DHT22;7791;47.246;9.648;2022-12-05T10:59:23;5.00;99.90
15386;DHT22;7791;47.246;9.648;2022-12-05T11:01:52;4.90;99.90
15386;DHT22;7791;47.246;9.648;2022-12-05T11:04:23;4.80;99.90
15386;DHT22;7791;47.246;9.648;2022-12-05T11:06:59;4.90;99.90
15386;DHT22;7791;47.246;9.648;2022-12-05T11:09:29;4.80;99.90
15386;DHT22;7791;47.246;9.648;2022-12-05T11:12:18;4.60;99.90
15386;DHT22;7791;47.246;9.648;2022-12-05T11:14:57;4.50;99.90
15386;DHT22;7791;47.246;9.648;2022-12-05T11:17:25;4.50;99.90
15386;DHT22;7791;47.246;9.648;2022-12-05T11:19:52;4.40;99.90
15386;DHT22;7791;47.246;9.648;2022-12-05T11:22:31;4.50;99.90
15386;DHT22;7791;47.246;9.648;2022-12-05T11:24:58;4.40;99.90
15386;DHT22;7791;47.246;9.648;2022-12-05T11:27:28;4.40;99.90
15386;DHT22;7791;47.246;9.648;2022-12-05T11:29:57;4.40;99.90
15386;DHT22;7791;47.246;9.648;2022-12-05T11:32:24;4.40;99.90
15386;DHT22;7791;47.246;9.648;2022-12-05T11:34:55;4.30;99.90
15386;DHT22;7791;47.246;9.648;2022-12-05T11:37:23;4.20;99.90
15386;DHT22;7791;47.246;9.648;2022-12-05T11:39:49;4.20;99.90
15386;DHT22;7791;47.246;9.648;2022-12-05T11:42:27;4.10;99.90
15386;DHT22;7791;47.246;9.648;2022-12-05T11:45:11;4.10;99.90
15386;DHT22;7791;47.246;9.648;2022-12-05T11:48:27;4.10;99.90
15386;DHT22;7791;47.246;9.648;2022-12-05T11:51:10;4.00;99.90
15386;DHT22;7791;47.246;9.648;2022-12-05T11:53:58;4.00;99.90
15386;DHT22;7791;47.246;9.648;2022-12-05T11:56:35;3.90;99.90
15386;DHT22;7791;47.246;9.648;2022-12-05T11:59:21;3.80;99.90
15386;DHT22;7791;47.246;9.648;2022-12-05T12:01:57;3.80;99.90
15386;DHT22;7791;47.246;9.648;2022-12-05T12:04:37;3.90;99.90
15386;DHT22;7791;47.246;9.648;2022-12-05T12:07:15;3.90;99.90
15386;DHT22;7791;47.246;9.648;2022-12-05T12:09:48;3.80;99.90
15386;DHT22;7791;47.246;9.648;2022-12-05T12:12:24;3.80;99.90
15386;DHT22;7791;47.246;9.648;2022-12-05T12:15:02;3.90;99.90
15386;DHT22;7791;47.246;9.648;2022-12-05T12:17:38;3.90;99.90
15386;DHT22;7791;47.246;9.648;2022-12-05T12:20:21;3.80;99.90
15386;DHT22;7791;47.246;9.648;2022-12-05T12:23:06;3.70;99.90
15386;DHT22;7791;47.246;9.648;2022-12-05T12:25:41;3.70;99.90
15386;DHT22;7791;47.246;9.648;2022-12-05T12:28:22;3.70;99.90
15386;DHT22;7791;47.246;9.648;2022-12-05T12:31:04;3.70;99.90
15386;DHT22;7791;47.246;9.648;2022-12-05T12:33:33;3.70;99.90
15386;DHT22;7791;47.246;9.648;2022-12-05T12:36:10;3.80;99.90
15386;DHT22;7791;47.246;9.648;2022-12-05T12:38:58;3.80;99.90
15386;DHT22;7791;47.246;9.648;2022-12-05T12:41:44;3.90;99.90
15386;DHT22;7791;47.246;9.648;2022-12-05T12:44:38;4.00;99.90
15386;DHT22;7791;47.246;9.648;2022-12-05T12:47:12;4.00;99.90
15386;DHT22;7791;47.246;9.648;2022-12-05T12:49:51;4.10;99.90
15386;DHT22;7791;47.246;9.648;2022-12-05T12:52:21;4.00;99.90
15386;DHT22;7791;47.246;9.648;2022-12-05T12:55:06;4.10;99.90
15386;DHT22;7791;47.246;9.648;2022-12-05T12:57:48;4.20;99.90
15386;DHT22;7791;47.246;9.648;2022-12-05T13:00:21;4.10;99.90
15386;DHT22;7791;47.246;9.648;2022-12-05T13:02:52;4.20;99.90
15386;DHT22;7791;47.246;9.648;2022-12-05T13:05:27;4.20;99.90
15386;DHT22;7791;47.246;9.648;2022-12-05T13:07:58;4.10;99.90
15386;DHT22;7791;47.246;9.648;2022-12-05T13:10:29;4.10;99.90
15386;DHT22;7791;47.246;9.648;2022-12-05T13:12:57;4.10;99.90
15386;DHT22;7791;47.246;9.648;2022-12-05T13:15:31;4.20;99.90
15386;DHT22;7791;47.246;9.648;2022-12-05T13:17:59;4.30;99.90
15386;DHT22;7791;47.246;9.648;2022-12-05T13:20:30;4.50;99.90
15386;DHT22;7791;47.246;9.648;2022-12-05T13:22:57;4.60;99.90
15386;DHT22;7791;47.246;9.648;2022-12-05T13:25:28;4.80;99.90
15386;DHT22;7791;47.246;9.648;2022-12-05T13:27:57;4.70;99.90
15386;DHT22;7791;47.246;9.648;2022-12-05T13:30:24;4.60;99.90
15386;DHT22;7791;47.246;9.648;2022-12-05T13:32:54;4.70;99.90
15386;DHT22;7791;47.246;9.648;2022-12-05T13:35:28;4.60;99.90
15386;DHT22;7791;47.246;9.648;2022-12-05T13:37:54;4.80;99.90
15386;DHT22;7791;47.246;9.648;2022-12-05T13:40:24;4.80;99.90
15386;DHT22;7791;47.246;9.648;2022-12-05T13:42:59;4.80;99.90
15386;DHT22;7791;47.246;9.648;2022-12-05T13:45:26;4.80;99.90
15386;DHT22;7791;47.246;9.648;2022-12-05T13:47:58;4.90;99.90
15386;DHT22;7791;47.246;9.648;2022-12-05T13:50:33;4.90;99.90
15386;DHT22;7791;47.246;9.648;2022-12-05T13:53:04;5.00;99.90
15386;DHT22;7791;47.246;9.648;2022-12-05T13:55:33;5.10;99.90
15386;DHT22;7791;47.246;9.648;2022-12-05T13:58:00;5.00;99.90
15386;DHT22;7791;47.246;9.648;2022-12-05T14:00:29;5.10;99.90
15386;DHT22;7791;47.246;9.648;2022-12-05T14:03:04;5.20;99.90
15386;DHT22;7791;47.246;9.648;2022-12-05T14:05:41;5.10;99.90
15386;DHT22;7791;47.246;9.648;2022-12-05T14:11:12;5.20;99.90
15386;DHT22;7791;47.246;9.648;2022-12-05T14:13:39;5.20;99.90
15386;DHT22;7791;47.246;9.648;2022-12-05T14:19:43;5.30;99.90
15386;DHT22;7791;47.246;9.648;2022-12-05T14:25:39;5.20;99.90
15386;DHT22;7791;47.246;9.648;2022-12-05T14:28:14;5.00;99.90
15386;DHT22;7791;47.246;9.648;2022-12-05T14:30:50;5.10;99.90
15386;DHT22;7791;47.246;9.648;2022-12-05T14:33:21;5.00;99.90
15386;DHT22;7791;47.246;9.648;2022-12-05T14:35:48;5.10;99.90
15386;DHT22;7791;47.246;9.648;2022-12-05T14:38:26;4.90;99.90
15386;DHT22;7791;47.246;9.648;2022-12-05T14:40:52;5.00;99.90
15386;DHT22;7791;47.246;9.648;2022-12-05T14:43:20;5.00;99.90
15386;DHT22;7791;47.246;9.648;2022-12-05T14:45:57;5.00;99.90
15386;DHT22;7791;47.246;9.648;2022-12-05T14:48:27;5.00;99.90
15386;DHT22;7791;47.246;9.648;2022-12-05T14:50:55;5.00;99.90
15386;DHT22;7791;47.246;9.648;2022-12-05T14:53:33;5.00;99.90
15386;DHT22;7791;47.246;9.648;2022-12-05T14:56:13;5.00;99.90
15386;DHT22;7791;47.246;9.648;2022-12-05T14:58:42;5.10;99.90
15386;DHT22;7791;47.246;9.648;2022-12-05T15:01:16;5.00;99.90
15386;DHT22;7791;47.246;9.648;2022-12-05T15:04:03;4.90;99.90
15386;DHT22;7791;47.246;9.648;2022-12-05T15:06:32;4.90;99.90
15386;DHT22;7791;47.246;9.648;2022-12-05T15:09:04;4.90;99.90
15386;DHT22;7791;47.246;9.648;2022-12-05T15:11:31;4.90;99.90
15386;DHT22;7791;47.246;9.648;2022-12-05T15:14:04;4.80;99.90
15386;DHT22;7791;47.246;9.648;2022-12-05T15:16:36;4.80;99.90
15386;DHT22;7791;47.246;9.648;2022-12-05T15:19:08;4.80;99.90
15386;DHT22;7791;47.246;9.648;2022-12-05T15:21:39;4.70;99.90
15386;DHT22;7791;47.246;9.648;2022-12-05T15:24:13;4.60;99.90
15386;DHT22;7791;47.246;9.648;2022-12-05T15:26:41;4.50;99.90
15386;DHT22;7791;47.246;9.648;2022-12-05T15:29:11;4.50;99.90
15386;DHT22;7791;47.246;9.648;2022-12-05T15:31:43;4.50;99.90
15386;DHT22;7791;47.246;9.648;2022-12-05T15:34:14;4.40;99.90
15386;DHT22;7791;47.246;9.648;2022-12-05T15:36:44;4.10;99.90
15386;DHT22;7791;47.246;9.648;2022-12-05T15:39:19;4.00;99.90
15386;DHT22;7791;47.246;9.648;2022-12-05T15:41:45;4.10;99.90
15386;DHT22;7791;47.246;9.648;2022-12-05T15:44:12;4.10;99.90
15386;DHT22;7791;47.246;9.648;2022-12-05T15:46:41;4.10;99.90
15386;DHT22;7791;47.246;9.648;2022-12-05T15:49:16;4.10;99.90
15386;DHT22;7791;47.246;9.648;2022-12-05T15:51:43;4.10;99.90
15386;DHT22;7791;47.246;9.648;2022-12-05T15:54:13;4.10;99.90
15386;DHT22;7791;47.246;9.648;2022-12-05T15:56:42;4.10;99.90
15386;DHT22;7791;47.246;9.648;2022-12-05T15:59:17;4.10;99.90
15386;DHT22;7791;47.246;9.648;2022-12-05T16:01:48;4.00;99.90
15386;DHT22;7791;47.246;9.648;2022-12-05T16:04:18;3.90;99.90
15386;DHT22;7791;47.246;9.648;2022-12-05T16:06:51;3.90;99.90
15386;DHT22;7791;47.246;9.648;2022-12-05T16:09:19;3.80;99.90
15386;DHT22;7791;47.246;9.648;2022-12-05T16:11:54;3.80;99.90
15386;DHT22;7791;47.246;9.648;2022-12-05T16:14:21;3.80;99.90
15386;DHT22;7791;47.246;9.648;2022-12-05T16:16:48;3.80;99.90
15386;DHT22;7791;47.246;9.648;2022-12-05T16:19:16;3.80;99.90
15386;DHT22;7791;47.246;9.648;2022-12-05T16:21:44;3.70;99.90
15386;DHT22;7791;47.246;9.648;2022-12-05T16:24:17;3.50;99.90
15386;DHT22;7791;47.246;9.648;2022-12-05T16:26:59;3.40;99.90
15386;DHT22;7791;47.246;9.648;2022-12-05T16:29:27;3.40;99.90
15386;DHT22;7791;47.246;9.648;2022-12-05T16:31:56;3.20;99.90